sensor_id;sensor_type;location;lat;lon;timestamp;P1;durP1;ratioP1;P2;durP2;ratioP2
76599;SDS011;65489;52.048;6.090;2023-08-20T00:01:26;2.92;;;0.98;;
76599;SDS011;65489;52.048;6.090;2023-08-20T00:03:52;1.63;;;0.95;;
76599;SDS011;65489;52.048;6.090;2023-08-20T00:06:18;1.10;;;0.60;;
76599;SDS011;65489;52.048;6.090;2023-08-20T00:08:45;1.70;;;0.98;;
76599;SDS011;65489;52.048;6.090;2023-08-20T00:11:11;2.05;;;0.88;;
76599;SDS011;65489;52.048;6.090;2023-08-20T00:13:37;1.83;;;0.80;;
76599;SDS011;65489;52.048;6.090;2023-08-20T00:16:03;1.00;;;0.75;;
76599;SDS011;65489;52.048;6.090;2023-08-20T00:18:28;2.25;;;0.90;;
76599;SDS011;65489;52.048;6.090;2023-08-20T00:20:54;2.17;;;1.00;;
76599;SDS011;65489;52.048;6.090;2023-08-20T00:23:20;1.20;;;0.63;;
76599;SDS011;65489;52.048;6.090;2023-08-20T00:25:46;2.00;;;0.70;;
76599;SDS011;65489;52.048;6.090;2023-08-20T00:28:12;1.90;;;0.90;;
76599;SDS011;65489;52.048;6.090;2023-08-20T00:30:38;1.33;;;0.70;;
76599;SDS011;65489;52.048;6.090;2023-08-20T00:33:03;1.50;;;0.80;;
76599;SDS011;65489;52.048;6.090;2023-08-20T00:35:29;1.08;;;0.70;;
76599;SDS011;65489;52.048;6.090;2023-08-20T00:37:54;3.78;;;0.70;;
76599;SDS011;65489;52.048;6.090;2023-08-20T00:40:20;1.85;;;0.80;;
76599;SDS011;65489;52.048;6.090;2023-08-20T00:42:45;1.40;;;0.80;;
76599;SDS011;65489;52.048;6.090;2023-08-20T00:45:11;1.65;;;0.80;;
76599;SDS011;65489;52.048;6.090;2023-08-20T00:47:37;1.30;;;0.80;;
76599;SDS011;65489;52.048;6.090;2023-08-20T00:50:02;1.90;;;0.80;;
76599;SDS011;65489;52.048;6.090;2023-08-20T00:52:34;1.17;;;0.88;;
76599;SDS011;65489;52.048;6.090;2023-08-20T00:55:02;1.55;;;0.82;;
76599;SDS011;65489;52.048;6.090;2023-08-20T00:57:32;1.85;;;0.77;;
76599;SDS011;65489;52.048;6.090;2023-08-20T00:59:58;1.23;;;0.77;;
76599;SDS011;65489;52.048;6.090;2023-08-20T01:02:24;1.67;;;0.80;;
76599;SDS011;65489;52.048;6.090;2023-08-20T01:04:53;2.85;;;0.80;;
76599;SDS011;65489;52.048;6.090;2023-08-20T01:07:24;1.98;;;0.73;;
76599;SDS011;65489;52.048;6.090;2023-08-20T01:10:09;1.60;;;0.70;;
76599;SDS011;65489;52.048;6.090;2023-08-20T01:12:41;1.70;;;0.60;;
76599;SDS011;65489;52.048;6.090;2023-08-20T01:15:06;1.35;;;0.80;;
76599;SDS011;65489;52.048;6.090;2023-08-20T01:17:38;2.33;;;0.85;;
76599;SDS011;65489;52.048;6.090;2023-08-20T01:20:05;1.60;;;0.88;;
76599;SDS011;65489;52.048;6.090;2023-08-20T01:30:31;2.50;;;0.85;;
76599;SDS011;65489;52.048;6.090;2023-08-20T01:32:56;3.15;;;0.80;;
76599;SDS011;65489;52.048;6.090;2023-08-20T01:35:24;2.78;;;0.80;;
76599;SDS011;65489;52.048;6.090;2023-08-20T01:38:01;3.33;;;0.90;;
76599;SDS011;65489;52.048;6.090;2023-08-20T01:40:26;2.03;;;0.73;;
76599;SDS011;65489;52.048;6.090;2023-08-20T01:42:52;1.95;;;0.80;;
76599;SDS011;65489;52.048;6.090;2023-08-20T01:45:17;1.48;;;0.68;;
76599;SDS011;65489;52.048;6.090;2023-08-20T01:47:43;1.70;;;0.90;;
76599;SDS011;65489;52.048;6.090;2023-08-20T01:50:09;1.92;;;0.88;;
76599;SDS011;65489;52.048;6.090;2023-08-20T01:52:35;1.02;;;0.70;;
76599;SDS011;65489;52.048;6.090;2023-08-20T01:55:00;1.92;;;0.80;;
76599;SDS011;65489;52.048;6.090;2023-08-20T01:57:26;2.15;;;0.80;;
76599;SDS011;65489;52.048;6.090;2023-08-20T01:59:51;2.33;;;0.90;;
76599;SDS011;65489;52.048;6.090;2023-08-20T02:02:17;3.50;;;0.90;;
76599;SDS011;65489;52.048;6.090;2023-08-20T02:04:43;1.77;;;0.80;;
76599;SDS011;65489;52.048;6.090;2023-08-20T02:07:08;1.30;;;0.77;;
76599;SDS011;65489;52.048;6.090;2023-08-20T02:09:34;1.48;;;0.70;;
76599;SDS011;65489;52.048;6.090;2023-08-20T02:11:59;1.60;;;0.65;;
76599;SDS011;65489;52.048;6.090;2023-08-20T02:14:25;1.08;;;0.70;;
76599;SDS011;65489;52.048;6.090;2023-08-20T02:16:52;4.35;;;0.88;;
76599;SDS011;65489;52.048;6.090;2023-08-20T02:19:17;1.42;;;0.70;;
76599;SDS011;65489;52.048;6.090;2023-08-20T02:21:43;2.88;;;0.77;;
76599;SDS011;65489;52.048;6.090;2023-08-20T02:24:09;1.33;;;0.65;;
76599;SDS011;65489;52.048;6.090;2023-08-20T02:26:35;0.88;;;0.70;;
76599;SDS011;65489;52.048;6.090;2023-08-20T02:29:00;1.10;;;0.63;;
76599;SDS011;65489;52.048;6.090;2023-08-20T02:31:26;1.88;;;0.70;;
76599;SDS011;65489;52.048;6.090;2023-08-20T02:33:51;2.25;;;0.70;;
76599;SDS011;65489;52.048;6.090;2023-08-20T02:36:16;2.25;;;0.90;;
76599;SDS011;65489;52.048;6.090;2023-08-20T02:38:42;0.82;;;0.60;;
76599;SDS011;65489;52.048;6.090;2023-08-20T02:41:09;1.73;;;0.70;;
76599;SDS011;65489;52.048;6.090;2023-08-20T02:43:35;1.88;;;0.68;;
76599;SDS011;65489;52.048;6.090;2023-08-20T02:46:00;1.63;;;0.70;;
76599;SDS011;65489;52.048;6.090;2023-08-20T02:48:26;2.85;;;0.70;;
76599;SDS011;65489;52.048;6.090;2023-08-20T02:50:53;1.42;;;0.70;;
76599;SDS011;65489;52.048;6.090;2023-08-20T02:53:19;1.73;;;0.73;;
76599;SDS011;65489;52.048;6.090;2023-08-20T02:55:45;0.93;;;0.70;;
76599;SDS011;65489;52.048;6.090;2023-08-20T02:58:11;1.40;;;0.65;;
76599;SDS011;65489;52.048;6.090;2023-08-20T03:00:36;2.10;;;0.70;;
76599;SDS011;65489;52.048;6.090;2023-08-20T03:03:02;1.73;;;0.70;;
76599;SDS011;65489;52.048;6.090;2023-08-20T03:05:33;2.90;;;0.70;;
76599;SDS011;65489;52.048;6.090;2023-08-20T03:07:59;0.70;;;0.60;;
76599;SDS011;65489;52.048;6.090;2023-08-20T03:10:24;1.48;;;0.57;;
76599;SDS011;65489;52.048;6.090;2023-08-20T03:12:51;1.83;;;0.63;;
76599;SDS011;65489;52.048;6.090;2023-08-20T03:15:16;1.35;;;0.70;;
76599;SDS011;65489;52.048;6.090;2023-08-20T03:17:42;2.17;;;0.60;;
76599;SDS011;65489;52.048;6.090;2023-08-20T03:20:08;1.48;;;0.80;;
76599;SDS011;65489;52.048;6.090;2023-08-20T03:22:35;1.52;;;0.73;;
76599;SDS011;65489;52.048;6.090;2023-08-20T03:25:01;1.92;;;0.80;;
76599;SDS011;65489;52.048;6.090;2023-08-20T03:27:27;1.55;;;0.70;;
76599;SDS011;65489;52.048;6.090;2023-08-20T03:29:53;0.75;;;0.50;;
76599;SDS011;65489;52.048;6.090;2023-08-20T03:32:18;0.85;;;0.60;;
76599;SDS011;65489;52.048;6.090;2023-08-20T03:34:44;0.98;;;0.70;;
76599;SDS011;65489;52.048;6.090;2023-08-20T03:37:09;1.77;;;0.77;;
76599;SDS011;65489;52.048;6.090;2023-08-20T03:39:35;1.27;;;0.70;;
76599;SDS011;65489;52.048;6.090;2023-08-20T03:42:00;1.17;;;0.68;;
76599;SDS011;65489;52.048;6.090;2023-08-20T03:44:26;1.30;;;0.68;;
76599;SDS011;65489;52.048;6.090;2023-08-20T03:46:51;1.65;;;0.80;;
76599;SDS011;65489;52.048;6.090;2023-08-20T03:49:17;0.95;;;0.68;;
76599;SDS011;65489;52.048;6.090;2023-08-20T03:51:43;1.00;;;0.60;;
76599;SDS011;65489;52.048;6.090;2023-08-20T03:54:08;1.02;;;0.70;;
76599;SDS011;65489;52.048;6.090;2023-08-20T03:56:34;0.82;;;0.50;;
76599;SDS011;65489;52.048;6.090;2023-08-20T03:58:59;1.60;;;0.57;;
76599;SDS011;65489;52.048;6.090;2023-08-20T04:01:25;1.25;;;0.77;;
76599;SDS011;65489;52.048;6.090;2023-08-20T04:03:50;2.05;;;0.60;;
76599;SDS011;65489;52.048;6.090;2023-08-20T04:06:16;1.30;;;0.63;;
76599;SDS011;65489;52.048;6.090;2023-08-20T04:08:41;1.27;;;0.68;;
76599;SDS011;65489;52.048;6.090;2023-08-20T04:11:07;2.22;;;0.75;;
76599;SDS011;65489;52.048;6.090;2023-08-20T04:13:33;0.88;;;0.68;;
76599;SDS011;65489;52.048;6.090;2023-08-20T04:15:59;1.92;;;0.68;;
76599;SDS011;65489;52.048;6.090;2023-08-20T04:18:24;2.22;;;0.68;;
76599;SDS011;65489;52.048;6.090;2023-08-20T04:20:51;2.47;;;0.70;;
76599;SDS011;65489;52.048;6.090;2023-08-20T04:23:21;1.00;;;0.60;;
76599;SDS011;65489;52.048;6.090;2023-08-20T04:25:46;1.27;;;0.70;;
76599;SDS011;65489;52.048;6.090;2023-08-20T04:28:15;2.60;;;0.70;;
76599;SDS011;65489;52.048;6.090;2023-08-20T04:30:40;1.38;;;0.60;;
76599;SDS011;65489;52.048;6.090;2023-08-20T04:33:06;1.75;;;0.75;;
76599;SDS011;65489;52.048;6.090;2023-08-20T04:35:32;2.15;;;0.70;;
76599;SDS011;65489;52.048;6.090;2023-08-20T04:37:59;1.42;;;0.50;;
76599;SDS011;65489;52.048;6.090;2023-08-20T04:40:25;1.75;;;0.77;;
76599;SDS011;65489;52.048;6.090;2023-08-20T04:42:51;2.45;;;0.77;;
76599;SDS011;65489;52.048;6.090;2023-08-20T04:45:16;0.85;;;0.60;;
76599;SDS011;65489;52.048;6.090;2023-08-20T04:47:45;0.90;;;0.52;;
76599;SDS011;65489;52.048;6.090;2023-08-20T04:50:11;1.67;;;0.80;;
76599;SDS011;65489;52.048;6.090;2023-08-20T04:52:38;0.93;;;0.70;;
76599;SDS011;65489;52.048;6.090;2023-08-20T04:55:05;1.05;;;0.70;;
76599;SDS011;65489;52.048;6.090;2023-08-20T04:57:33;1.58;;;0.70;;
76599;SDS011;65489;52.048;6.090;2023-08-20T04:59:59;1.23;;;0.52;;
76599;SDS011;65489;52.048;6.090;2023-08-20T05:02:42;2.03;;;0.70;;
76599;SDS011;65489;52.048;6.090;2023-08-20T05:05:11;1.65;;;0.68;;
76599;SDS011;65489;52.048;6.090;2023-08-20T05:07:37;1.00;;;0.60;;
76599;SDS011;65489;52.048;6.090;2023-08-20T05:10:04;1.25;;;0.50;;
76599;SDS011;65489;52.048;6.090;2023-08-20T05:12:29;1.10;;;0.70;;
76599;SDS011;65489;52.048;6.090;2023-08-20T05:14:55;1.15;;;0.70;;
76599;SDS011;65489;52.048;6.090;2023-08-20T05:17:20;1.42;;;0.60;;
76599;SDS011;65489;52.048;6.090;2023-08-20T05:19:46;1.60;;;0.70;;
76599;SDS011;65489;52.048;6.090;2023-08-20T05:22:12;1.13;;;0.60;;
76599;SDS011;65489;52.048;6.090;2023-08-20T05:24:38;0.90;;;0.45;;
76599;SDS011;65489;52.048;6.090;2023-08-20T05:27:07;3.20;;;0.70;;
76599;SDS011;65489;52.048;6.090;2023-08-20T05:29:33;1.17;;;0.50;;
76599;SDS011;65489;52.048;6.090;2023-08-20T05:31:59;1.45;;;0.60;;
76599;SDS011;65489;52.048;6.090;2023-08-20T05:34:25;0.90;;;0.60;;
76599;SDS011;65489;52.048;6.090;2023-08-20T05:36:51;0.77;;;0.50;;
76599;SDS011;65489;52.048;6.090;2023-08-20T05:39:16;2.28;;;0.65;;
76599;SDS011;65489;52.048;6.090;2023-08-20T05:41:42;1.23;;;0.70;;
76599;SDS011;65489;52.048;6.090;2023-08-20T05:44:07;0.60;;;0.50;;
76599;SDS011;65489;52.048;6.090;2023-08-20T05:46:33;0.98;;;0.70;;
76599;SDS011;65489;52.048;6.090;2023-08-20T05:48:58;2.17;;;0.57;;
76599;SDS011;65489;52.048;6.090;2023-08-20T05:51:26;1.00;;;0.52;;
76599;SDS011;65489;52.048;6.090;2023-08-20T05:53:51;2.13;;;0.63;;
76599;SDS011;65489;52.048;6.090;2023-08-20T05:56:18;1.17;;;0.73;;
76599;SDS011;65489;52.048;6.090;2023-08-20T05:58:44;0.93;;;0.57;;
76599;SDS011;65489;52.048;6.090;2023-08-20T06:01:10;2.08;;;0.75;;
76599;SDS011;65489;52.048;6.090;2023-08-20T06:03:35;3.08;;;0.80;;
76599;SDS011;65489;52.048;6.090;2023-08-20T06:06:01;1.35;;;0.70;;
76599;SDS011;65489;52.048;6.090;2023-08-20T06:08:27;1.05;;;0.50;;
76599;SDS011;65489;52.048;6.090;2023-08-20T06:10:52;0.60;;;0.50;;
76599;SDS011;65489;52.048;6.090;2023-08-20T06:13:18;0.98;;;0.60;;
76599;SDS011;65489;52.048;6.090;2023-08-20T06:15:43;1.25;;;0.63;;
76599;SDS011;65489;52.048;6.090;2023-08-20T06:18:09;1.13;;;0.68;;
76599;SDS011;65489;52.048;6.090;2023-08-20T06:20:34;1.05;;;0.60;;
76599;SDS011;65489;52.048;6.090;2023-08-20T06:23:00;1.45;;;0.80;;
76599;SDS011;65489;52.048;6.090;2023-08-20T06:25:25;1.33;;;0.77;;
76599;SDS011;65489;52.048;6.090;2023-08-20T06:27:51;1.50;;;0.70;;
76599;SDS011;65489;52.048;6.090;2023-08-20T06:30:16;0.93;;;0.60;;
76599;SDS011;65489;52.048;6.090;2023-08-20T06:32:43;1.30;;;0.60;;
76599;SDS011;65489;52.048;6.090;2023-08-20T06:35:09;1.33;;;0.50;;
76599;SDS011;65489;52.048;6.090;2023-08-20T06:37:35;0.88;;;0.50;;
76599;SDS011;65489;52.048;6.090;2023-08-20T06:40:00;1.90;;;0.50;;
76599;SDS011;65489;52.048;6.090;2023-08-20T06:42:26;1.75;;;0.50;;
76599;SDS011;65489;52.048;6.090;2023-08-20T06:44:51;1.45;;;0.70;;
76599;SDS011;65489;52.048;6.090;2023-08-20T06:47:16;2.22;;;0.80;;
76599;SDS011;65489;52.048;6.090;2023-08-20T06:49:42;1.35;;;0.60;;
76599;SDS011;65489;52.048;6.090;2023-08-20T06:52:07;2.17;;;0.65;;
76599;SDS011;65489;52.048;6.090;2023-08-20T06:54:33;2.17;;;0.80;;
76599;SDS011;65489;52.048;6.090;2023-08-20T06:56:58;1.58;;;1.10;;
76599;SDS011;65489;52.048;6.090;2023-08-20T06:59:23;1.98;;;0.82;;
76599;SDS011;65489;52.048;6.090;2023-08-20T07:01:49;1.73;;;0.90;;
76599;SDS011;65489;52.048;6.090;2023-08-20T07:04:14;2.85;;;0.90;;
76599;SDS011;65489;52.048;6.090;2023-08-20T07:06:40;3.40;;;1.23;;
76599;SDS011;65489;52.048;6.090;2023-08-20T07:09:06;2.85;;;1.15;;
76599;SDS011;65489;52.048;6.090;2023-08-20T07:11:32;2.30;;;1.10;;
76599;SDS011;65489;52.048;6.090;2023-08-20T07:13:57;2.55;;;1.35;;
76599;SDS011;65489;52.048;6.090;2023-08-20T07:16:23;4.03;;;1.40;;
76599;SDS011;65489;52.048;6.090;2023-08-20T07:18:48;3.25;;;1.20;;
76599;SDS011;65489;52.048;6.090;2023-08-20T07:21:14;5.72;;;1.25;;
76599;SDS011;65489;52.048;6.090;2023-08-20T07:23:39;3.72;;;1.20;;
76599;SDS011;65489;52.048;6.090;2023-08-20T07:26:09;3.15;;;1.20;;
76599;SDS011;65489;52.048;6.090;2023-08-20T07:28:35;4.53;;;1.23;;
76599;SDS011;65489;52.048;6.090;2023-08-20T07:31:19;6.20;;;1.40;;
76599;SDS011;65489;52.048;6.090;2023-08-20T07:33:46;3.35;;;1.17;;
76599;SDS011;65489;52.048;6.090;2023-08-20T07:36:12;5.38;;;1.30;;
76599;SDS011;65489;52.048;6.090;2023-08-20T07:38:38;4.20;;;1.52;;
76599;SDS011;65489;52.048;6.090;2023-08-20T07:41:06;2.58;;;1.42;;
76599;SDS011;65489;52.048;6.090;2023-08-20T07:43:32;4.35;;;1.60;;
76599;SDS011;65489;52.048;6.090;2023-08-20T07:45:57;4.40;;;1.50;;
76599;SDS011;65489;52.048;6.090;2023-08-20T07:48:23;3.72;;;1.40;;
76599;SDS011;65489;52.048;6.090;2023-08-20T07:50:49;5.47;;;1.60;;
76599;SDS011;65489;52.048;6.090;2023-08-20T07:53:15;4.03;;;1.05;;
76599;SDS011;65489;52.048;6.090;2023-08-20T07:55:40;3.40;;;1.38;;
76599;SDS011;65489;52.048;6.090;2023-08-20T07:58:06;3.03;;;1.35;;
76599;SDS011;65489;52.048;6.090;2023-08-20T08:00:31;4.57;;;1.50;;
76599;SDS011;65489;52.048;6.090;2023-08-20T08:02:56;4.53;;;1.35;;
76599;SDS011;65489;52.048;6.090;2023-08-20T08:05:22;3.50;;;1.10;;
76599;SDS011;65489;52.048;6.090;2023-08-20T08:07:47;4.00;;;1.38;;
76599;SDS011;65489;52.048;6.090;2023-08-20T08:10:13;2.67;;;1.10;;
76599;SDS011;65489;52.048;6.090;2023-08-20T08:12:38;3.33;;;1.20;;
76599;SDS011;65489;52.048;6.090;2023-08-20T08:15:04;2.10;;;1.00;;
76599;SDS011;65489;52.048;6.090;2023-08-20T08:17:29;2.58;;;1.08;;
76599;SDS011;65489;52.048;6.090;2023-08-20T08:19:55;2.78;;;1.13;;
76599;SDS011;65489;52.048;6.090;2023-08-20T08:22:21;3.10;;;1.30;;
76599;SDS011;65489;52.048;6.090;2023-08-20T08:24:47;2.88;;;1.25;;
76599;SDS011;65489;52.048;6.090;2023-08-20T08:27:12;2.28;;;1.08;;
76599;SDS011;65489;52.048;6.090;2023-08-20T08:29:38;3.47;;;1.23;;
76599;SDS011;65489;52.048;6.090;2023-08-20T08:32:03;4.68;;;1.20;;
76599;SDS011;65489;52.048;6.090;2023-08-20T08:34:29;3.83;;;1.17;;
76599;SDS011;65489;52.048;6.090;2023-08-20T08:36:54;2.33;;;1.05;;
76599;SDS011;65489;52.048;6.090;2023-08-20T08:39:20;1.75;;;0.82;;
76599;SDS011;65489;52.048;6.090;2023-08-20T08:41:45;2.20;;;0.98;;
76599;SDS011;65489;52.048;6.090;2023-08-20T08:44:15;2.35;;;1.08;;
76599;SDS011;65489;52.048;6.090;2023-08-20T08:46:41;2.75;;;1.10;;
76599;SDS011;65489;52.048;6.090;2023-08-20T08:49:08;2.17;;;1.10;;
76599;SDS011;65489;52.048;6.090;2023-08-20T08:51:34;3.25;;;1.02;;
76599;SDS011;65489;52.048;6.090;2023-08-20T08:54:00;2.58;;;0.85;;
76599;SDS011;65489;52.048;6.090;2023-08-20T08:56:27;2.95;;;0.95;;
76599;SDS011;65489;52.048;6.090;2023-08-20T08:58:52;2.65;;;1.10;;
76599;SDS011;65489;52.048;6.090;2023-08-20T09:01:19;2.03;;;1.10;;
76599;SDS011;65489;52.048;6.090;2023-08-20T09:03:45;3.90;;;1.13;;
76599;SDS011;65489;52.048;6.090;2023-08-20T09:06:10;1.70;;;1.00;;
76599;SDS011;65489;52.048;6.090;2023-08-20T09:08:36;2.28;;;1.08;;
76599;SDS011;65489;52.048;6.090;2023-08-20T09:11:02;1.85;;;0.90;;
76599;SDS011;65489;52.048;6.090;2023-08-20T09:13:37;1.63;;;0.88;;
76599;SDS011;65489;52.048;6.090;2023-08-20T09:16:11;2.83;;;0.90;;
76599;SDS011;65489;52.048;6.090;2023-08-20T09:18:40;1.75;;;1.00;;
76599;SDS011;65489;52.048;6.090;2023-08-20T09:21:09;1.50;;;0.70;;
76599;SDS011;65489;52.048;6.090;2023-08-20T09:23:36;1.58;;;0.88;;
76599;SDS011;65489;52.048;6.090;2023-08-20T09:26:02;1.45;;;0.70;;
76599;SDS011;65489;52.048;6.090;2023-08-20T09:28:29;1.67;;;0.60;;
76599;SDS011;65489;52.048;6.090;2023-08-20T09:31:00;1.52;;;0.75;;
76599;SDS011;65489;52.048;6.090;2023-08-20T09:33:29;1.67;;;0.85;;
76599;SDS011;65489;52.048;6.090;2023-08-20T09:35:54;1.63;;;0.65;;
76599;SDS011;65489;52.048;6.090;2023-08-20T09:38:20;2.28;;;0.63;;
76599;SDS011;65489;52.048;6.090;2023-08-20T09:40:49;1.73;;;0.70;;
76599;SDS011;65489;52.048;6.090;2023-08-20T09:43:21;2.67;;;0.80;;
76599;SDS011;65489;52.048;6.090;2023-08-20T09:45:51;1.15;;;0.70;;
76599;SDS011;65489;52.048;6.090;2023-08-20T09:48:18;1.38;;;0.60;;
76599;SDS011;65489;52.048;6.090;2023-08-20T09:50:46;1.67;;;0.88;;
76599;SDS011;65489;52.048;6.090;2023-08-20T09:55:48;1.55;;;0.80;;
76599;SDS011;65489;52.048;6.090;2023-08-20T09:58:17;1.73;;;0.75;;
76599;SDS011;65489;52.048;6.090;2023-08-20T10:00:46;1.23;;;0.60;;
76599;SDS011;65489;52.048;6.090;2023-08-20T10:03:13;1.35;;;0.60;;
76599;SDS011;65489;52.048;6.090;2023-08-20T10:05:38;1.55;;;0.73;;
76599;SDS011;65489;52.048;6.090;2023-08-20T10:08:04;1.40;;;0.70;;
76599;SDS011;65489;52.048;6.090;2023-08-20T10:10:31;1.20;;;0.68;;
76599;SDS011;65489;52.048;6.090;2023-08-20T10:12:57;1.33;;;0.70;;
76599;SDS011;65489;52.048;6.090;2023-08-20T10:15:23;1.30;;;0.55;;
76599;SDS011;65489;52.048;6.090;2023-08-20T10:17:49;3.08;;;0.70;;
76599;SDS011;65489;52.048;6.090;2023-08-20T10:20:14;1.30;;;0.77;;
76599;SDS011;65489;52.048;6.090;2023-08-20T10:22:43;1.15;;;0.50;;
76599;SDS011;65489;52.048;6.090;2023-08-20T10:25:10;1.75;;;0.70;;
76599;SDS011;65489;52.048;6.090;2023-08-20T10:27:40;1.75;;;0.60;;
76599;SDS011;65489;52.048;6.090;2023-08-20T10:30:08;1.35;;;0.50;;
76599;SDS011;65489;52.048;6.090;2023-08-20T10:35:11;1.23;;;0.50;;
76599;SDS011;65489;52.048;6.090;2023-08-20T10:37:37;0.88;;;0.50;;
76599;SDS011;65489;52.048;6.090;2023-08-20T10:40:05;1.27;;;0.40;;
76599;SDS011;65489;52.048;6.090;2023-08-20T10:42:31;1.25;;;0.70;;
76599;SDS011;65489;52.048;6.090;2023-08-20T10:44:58;0.75;;;0.50;;
76599;SDS011;65489;52.048;6.090;2023-08-20T10:47:24;0.63;;;0.40;;
76599;SDS011;65489;52.048;6.090;2023-08-20T10:49:53;1.02;;;0.60;;
76599;SDS011;65489;52.048;6.090;2023-08-20T10:52:20;0.95;;;0.43;;
76599;SDS011;65489;52.048;6.090;2023-08-20T10:54:49;1.10;;;0.60;;
76599;SDS011;65489;52.048;6.090;2023-08-20T10:57:15;1.63;;;0.50;;
76599;SDS011;65489;52.048;6.090;2023-08-20T10:59:41;0.90;;;0.50;;
76599;SDS011;65489;52.048;6.090;2023-08-20T11:02:07;1.77;;;0.60;;
76599;SDS011;65489;52.048;6.090;2023-08-20T11:04:37;1.38;;;0.40;;
76599;SDS011;65489;52.048;6.090;2023-08-20T11:07:04;1.08;;;0.45;;
76599;SDS011;65489;52.048;6.090;2023-08-20T11:09:30;1.60;;;0.50;;
76599;SDS011;65489;52.048;6.090;2023-08-20T11:11:56;1.48;;;0.80;;
76599;SDS011;65489;52.048;6.090;2023-08-20T11:14:22;0.88;;;0.50;;
76599;SDS011;65489;52.048;6.090;2023-08-20T11:16:47;1.33;;;0.47;;
76599;SDS011;65489;52.048;6.090;2023-08-20T11:19:22;1.13;;;0.40;;
76599;SDS011;65489;52.048;6.090;2023-08-20T11:21:48;1.52;;;0.50;;
76599;SDS011;65489;52.048;6.090;2023-08-20T11:24:14;0.65;;;0.40;;
76599;SDS011;65489;52.048;6.090;2023-08-20T11:26:41;1.27;;;0.40;;
76599;SDS011;65489;52.048;6.090;2023-08-20T11:29:07;1.33;;;0.40;;
76599;SDS011;65489;52.048;6.090;2023-08-20T11:31:34;0.95;;;0.43;;
76599;SDS011;65489;52.048;6.090;2023-08-20T11:34:01;1.77;;;0.32;;
76599;SDS011;65489;52.048;6.090;2023-08-20T11:36:27;0.95;;;0.50;;
76599;SDS011;65489;52.048;6.090;2023-08-20T11:38:53;0.50;;;0.40;;
76599;SDS011;65489;52.048;6.090;2023-08-20T11:41:19;1.42;;;0.50;;
76599;SDS011;65489;52.048;6.090;2023-08-20T11:43:45;0.77;;;0.40;;
76599;SDS011;65489;52.048;6.090;2023-08-20T11:46:15;1.40;;;0.43;;
76599;SDS011;65489;52.048;6.090;2023-08-20T11:49:03;0.90;;;0.43;;
76599;SDS011;65489;52.048;6.090;2023-08-20T11:51:34;0.80;;;0.40;;
76599;SDS011;65489;52.048;6.090;2023-08-20T11:54:02;1.00;;;0.40;;
76599;SDS011;65489;52.048;6.090;2023-08-20T11:56:29;0.60;;;0.40;;
76599;SDS011;65489;52.048;6.090;2023-08-20T11:58:58;1.50;;;0.47;;
76599;SDS011;65489;52.048;6.090;2023-08-20T12:01:24;2.05;;;0.50;;
76599;SDS011;65489;52.048;6.090;2023-08-20T12:03:50;1.23;;;0.40;;
76599;SDS011;65489;52.048;6.090;2023-08-20T12:06:21;0.82;;;0.45;;
76599;SDS011;65489;52.048;6.090;2023-08-20T12:08:53;0.60;;;0.38;;
76599;SDS011;65489;52.048;6.090;2023-08-20T12:11:19;0.73;;;0.40;;
76599;SDS011;65489;52.048;6.090;2023-08-20T12:13:49;1.00;;;0.35;;
76599;SDS011;65489;52.048;6.090;2023-08-20T12:16:14;0.70;;;0.30;;
76599;SDS011;65489;52.048;6.090;2023-08-20T12:18:40;1.00;;;0.30;;
76599;SDS011;65489;52.048;6.090;2023-08-20T12:21:05;0.65;;;0.30;;
76599;SDS011;65489;52.048;6.090;2023-08-20T12:23:30;1.25;;;0.50;;
76599;SDS011;65489;52.048;6.090;2023-08-20T12:25:56;1.48;;;0.40;;
76599;SDS011;65489;52.048;6.090;2023-08-20T12:28:21;0.95;;;0.35;;
76599;SDS011;65489;52.048;6.090;2023-08-20T12:30:47;1.58;;;0.30;;
76599;SDS011;65489;52.048;6.090;2023-08-20T12:33:12;0.90;;;0.30;;
76599;SDS011;65489;52.048;6.090;2023-08-20T12:35:38;1.77;;;0.50;;
76599;SDS011;65489;52.048;6.090;2023-08-20T12:38:04;0.60;;;0.35;;
76599;SDS011;65489;52.048;6.090;2023-08-20T12:40:30;1.55;;;0.40;;
76599;SDS011;65489;52.048;6.090;2023-08-20T12:42:55;0.85;;;0.30;;
76599;SDS011;65489;52.048;6.090;2023-08-20T12:45:21;1.05;;;0.40;;
76599;SDS011;65489;52.048;6.090;2023-08-20T12:47:46;0.77;;;0.40;;
76599;SDS011;65489;52.048;6.090;2023-08-20T12:50:12;0.63;;;0.30;;
76599;SDS011;65489;52.048;6.090;2023-08-20T12:52:39;1.42;;;0.40;;
76599;SDS011;65489;52.048;6.090;2023-08-20T12:55:05;0.98;;;0.38;;
76599;SDS011;65489;52.048;6.090;2023-08-20T12:57:33;1.42;;;0.50;;
76599;SDS011;65489;52.048;6.090;2023-08-20T12:59:59;0.90;;;0.30;;
76599;SDS011;65489;52.048;6.090;2023-08-20T13:02:25;1.10;;;0.40;;
76599;SDS011;65489;52.048;6.090;2023-08-20T13:04:50;0.80;;;0.30;;
76599;SDS011;65489;52.048;6.090;2023-08-20T13:07:16;1.17;;;0.30;;
76599;SDS011;65489;52.048;6.090;2023-08-20T13:09:42;1.67;;;0.40;;
76599;SDS011;65489;52.048;6.090;2023-08-20T13:12:07;0.65;;;0.30;;
76599;SDS011;65489;52.048;6.090;2023-08-20T13:14:37;1.63;;;0.40;;
76599;SDS011;65489;52.048;6.090;2023-08-20T13:17:05;1.70;;;0.40;;
76599;SDS011;65489;52.048;6.090;2023-08-20T13:19:30;0.68;;;0.20;;
76599;SDS011;65489;52.048;6.090;2023-08-20T13:21:56;0.60;;;0.20;;
76599;SDS011;65489;52.048;6.090;2023-08-20T13:24:21;1.38;;;0.47;;
76599;SDS011;65489;52.048;6.090;2023-08-20T13:26:47;1.00;;;0.35;;
76599;SDS011;65489;52.048;6.090;2023-08-20T13:29:12;0.65;;;0.28;;
76599;SDS011;65489;52.048;6.090;2023-08-20T13:31:38;1.15;;;0.40;;
76599;SDS011;65489;52.048;6.090;2023-08-20T13:34:03;0.60;;;0.32;;
76599;SDS011;65489;52.048;6.090;2023-08-20T13:36:29;1.90;;;0.30;;
76599;SDS011;65489;52.048;6.090;2023-08-20T13:38:55;0.90;;;0.30;;
76599;SDS011;65489;52.048;6.090;2023-08-20T13:41:20;1.08;;;0.30;;
76599;SDS011;65489;52.048;6.090;2023-08-20T13:43:46;1.67;;;0.32;;
76599;SDS011;65489;52.048;6.090;2023-08-20T13:46:11;1.73;;;0.40;;
76599;SDS011;65489;52.048;6.090;2023-08-20T13:48:37;0.90;;;0.40;;
76599;SDS011;65489;52.048;6.090;2023-08-20T13:51:02;1.00;;;0.50;;
76599;SDS011;65489;52.048;6.090;2023-08-20T13:53:27;0.63;;;0.30;;
76599;SDS011;65489;52.048;6.090;2023-08-20T13:55:53;1.15;;;0.40;;
76599;SDS011;65489;52.048;6.090;2023-08-20T13:58:20;0.60;;;0.30;;
76599;SDS011;65489;52.048;6.090;2023-08-20T14:00:45;0.77;;;0.22;;
76599;SDS011;65489;52.048;6.090;2023-08-20T14:03:11;1.02;;;0.40;;
76599;SDS011;65489;52.048;6.090;2023-08-20T14:05:37;1.05;;;0.30;;
76599;SDS011;65489;52.048;6.090;2023-08-20T14:08:02;0.88;;;0.30;;
76599;SDS011;65489;52.048;6.090;2023-08-20T14:10:28;1.00;;;0.40;;
76599;SDS011;65489;52.048;6.090;2023-08-20T14:12:53;0.75;;;0.40;;
76599;SDS011;65489;52.048;6.090;2023-08-20T14:15:19;1.13;;;0.40;;
76599;SDS011;65489;52.048;6.090;2023-08-20T14:17:44;0.50;;;0.38;;
76599;SDS011;65489;52.048;6.090;2023-08-20T14:20:10;0.90;;;0.40;;
76599;SDS011;65489;52.048;6.090;2023-08-20T14:22:36;0.70;;;0.40;;
76599;SDS011;65489;52.048;6.090;2023-08-20T14:25:02;1.80;;;0.40;;
76599;SDS011;65489;52.048;6.090;2023-08-20T14:27:29;0.80;;;0.38;;
76599;SDS011;65489;52.048;6.090;2023-08-20T14:29:55;0.85;;;0.30;;
76599;SDS011;65489;52.048;6.090;2023-08-20T14:32:21;1.08;;;0.40;;
76599;SDS011;65489;52.048;6.090;2023-08-20T14:34:46;1.90;;;0.40;;
76599;SDS011;65489;52.048;6.090;2023-08-20T14:37:11;1.48;;;0.50;;
76599;SDS011;65489;52.048;6.090;2023-08-20T14:39:38;1.40;;;0.30;;
76599;SDS011;65489;52.048;6.090;2023-08-20T14:42:04;1.42;;;0.40;;
76599;SDS011;65489;52.048;6.090;2023-08-20T14:44:29;1.23;;;0.40;;
76599;SDS011;65489;52.048;6.090;2023-08-20T14:46:55;0.95;;;0.40;;
76599;SDS011;65489;52.048;6.090;2023-08-20T14:49:20;2.22;;;0.47;;
76599;SDS011;65489;52.048;6.090;2023-08-20T14:51:46;0.90;;;0.32;;
76599;SDS011;65489;52.048;6.090;2023-08-20T14:54:11;1.38;;;0.40;;
76599;SDS011;65489;52.048;6.090;2023-08-20T14:56:36;0.80;;;0.30;;